createdAt,value
2018-03-26T00:01:09.457Z,97.10
2018-03-26T00:03:36.994Z,97.10
2018-03-26T00:06:04.541Z,96.90
2018-03-26T00:08:32.161Z,97.10
2018-03-26T00:10:59.718Z,97.30
2018-03-26T00:13:27.717Z,97.60
2018-03-26T00:15:56.020Z,97.20
2018-03-26T00:18:24.416Z,97.20
2018-03-26T00:20:52.717Z,96.70
2018-03-26T00:23:20.450Z,96.70
2018-03-26T00:25:47.963Z,96.60
2018-03-26T00:28:15.490Z,97.40
2018-03-26T00:30:43.032Z,97.70
2018-03-26T00:33:10.547Z,97.60
2018-03-26T00:35:38.087Z,97.70
2018-03-26T00:38:06.467Z,97.70
2018-03-26T00:40:34.942Z,98.20
2018-03-26T00:43:02.563Z,98.10
2018-03-26T00:45:30.253Z,98.10
2018-03-26T00:47:57.813Z,98.40
2018-03-26T00:50:26.143Z,98.60
2018-03-26T00:52:53.672Z,98.60
2018-03-26T00:55:22.012Z,99.10
2018-03-26T00:57:49.636Z,99.20
2018-03-26T01:00:17.977Z,99.80
2018-03-26T01:02:45.523Z,99.60
2018-03-26T01:05:13.803Z,99.30
2018-03-26T01:07:42.095Z,99.90
2018-03-26T01:10:10.369Z,99.80
2018-03-26T01:12:37.912Z,99.80
2018-03-26T01:15:06.129Z,99.60
2018-03-26T01:17:33.961Z,99.90
2018-03-26T01:20:01.610Z,99.90
2018-03-26T01:22:29.297Z,99.90
2018-03-26T01:24:56.823Z,99.80
2018-03-26T01:27:24.336Z,99.90
2018-03-26T01:29:51.960Z,99.90
2018-03-26T01:32:19.524Z,99.90
2018-03-26T01:34:47.114Z,99.90
2018-03-26T01:37:15.399Z,99.90
2018-03-26T01:39:42.949Z,99.90
2018-03-26T01:42:10.468Z,99.90
2018-03-26T01:44:38.004Z,99.90
2018-03-26T01:47:05.668Z,99.90
2018-03-26T01:49:33.263Z,99.90
2018-03-26T01:52:01.641Z,99.90
2018-03-26T01:54:30.379Z,99.90
2018-03-26T01:56:58.906Z,99.90
2018-03-26T01:59:26.432Z,99.90
2018-03-26T02:01:54.732Z,99.90
2018-03-26T02:04:22.249Z,99.90
2018-03-26T02:06:49.850Z,99.90
2018-03-26T02:09:17.385Z,99.90
2018-03-26T02:11:44.931Z,99.90
2018-03-26T02:14:12.453Z,99.90
2018-03-26T02:16:39.970Z,99.90
2018-03-26T02:19:07.503Z,99.90
2018-03-26T02:21:35.864Z,99.90
2018-03-26T02:24:03.581Z,99.90
2018-03-26T02:26:31.288Z,99.90
2018-03-26T02:28:58.950Z,99.90
2018-03-26T02:31:26.468Z,99.90
2018-03-26T02:33:54.004Z,99.90
2018-03-26T02:36:21.520Z,99.90
2018-03-26T02:38:49.904Z,99.90
2018-03-26T02:41:18.223Z,99.90
2018-03-26T02:43:45.745Z,99.90
2018-03-26T02:46:13.280Z,99.90
2018-03-26T02:48:40.790Z,99.90
2018-03-26T02:51:08.332Z,99.90
2018-03-26T02:53:35.933Z,99.90
2018-03-26T02:56:03.611Z,99.90
2018-03-26T02:58:31.307Z,99.90
2018-03-26T03:00:58.991Z,99.90
2018-03-26T03:03:26.516Z,99.90
2018-03-26T03:05:54.823Z,99.90
2018-03-26T03:08:22.329Z,99.90
2018-03-26T03:10:49.938Z,99.90
2018-03-26T03:13:17.485Z,99.90
2018-03-26T03:15:45.062Z,99.90
2018-03-26T03:18:12.599Z,99.90
2018-03-26T03:20:40.882Z,99.90
2018-03-26T03:23:09.193Z,99.90
2018-03-26T03:25:36.713Z,99.90
2018-03-26T03:28:04.491Z,99.90
2018-03-26T03:30:32.093Z,99.90
2018-03-26T03:33:00.521Z,99.90
2018-03-26T03:35:28.089Z,99.90
2018-03-26T03:37:55.611Z,99.90
2018-03-26T03:40:23.169Z,99.90
2018-03-26T03:42:50.913Z,99.90
2018-03-26T03:45:18.580Z,99.90
2018-03-26T03:47:46.928Z,99.90
2018-03-26T03:50:14.695Z,99.90
2018-03-26T03:52:42.220Z,99.90
2018-03-26T03:55:09.755Z,99.90
2018-03-26T03:57:38.033Z,99.90
2018-03-26T04:00:05.726Z,99.90
2018-03-26T04:02:33.379Z,99.90
2018-03-26T04:05:01.013Z,99.90
2018-03-26T04:07:29.591Z,99.90
2018-03-26T04:09:57.215Z,99.90
2018-03-26T04:12:24.751Z,99.90
2018-03-26T04:14:52.311Z,99.90
2018-03-26T04:17:19.981Z,99.90
2018-03-26T04:19:47.512Z,99.90
2018-03-26T04:22:15.083Z,99.90
2018-03-26T04:24:43.366Z,99.90
2018-03-26T04:27:11.660Z,99.90
2018-03-26T04:29:39.964Z,99.90
2018-03-26T04:32:07.526Z,99.90
2018-03-26T04:34:35.081Z,99.90
2018-03-26T04:37:02.684Z,99.90
2018-03-26T04:39:30.369Z,99.90
2018-03-26T04:41:57.956Z,99.90
2018-03-26T04:44:25.583Z,99.90
2018-03-26T04:46:53.199Z,99.90
2018-03-26T04:49:20.823Z,99.90
2018-03-26T04:51:49.192Z,99.90
2018-03-26T04:54:18.127Z,99.90
2018-03-26T04:56:46.441Z,99.90
2018-03-26T04:59:14.026Z,99.90
2018-03-26T05:01:41.571Z,99.90
2018-03-26T05:04:09.124Z,99.90
2018-03-26T05:06:37.428Z,99.90
2018-03-26T05:09:05.442Z,99.90
2018-03-26T05:11:33.200Z,99.90
2018-03-26T05:14:00.799Z,99.90
2018-03-26T05:16:28.893Z,99.90
2018-03-26T05:18:56.419Z,99.90
2018-03-26T05:21:24.288Z,99.90
2018-03-26T05:23:51.821Z,99.90
2018-03-26T05:26:19.392Z,99.90
2018-03-26T05:28:46.984Z,99.90
2018-03-26T05:31:14.523Z,99.90
2018-03-26T05:33:42.047Z,99.90
2018-03-26T05:36:09.589Z,99.90
2018-03-26T05:38:39.838Z,99.90
2018-03-26T05:41:07.375Z,99.90
2018-03-26T05:43:34.946Z,99.90
2018-03-26T05:46:02.599Z,99.90
2018-03-26T05:48:30.252Z,99.90
2018-03-26T05:50:57.800Z,99.90
2018-03-26T05:53:25.327Z,99.90
2018-03-26T05:55:52.844Z,99.90
2018-03-26T05:58:21.159Z,99.90
2018-03-26T06:00:48.687Z,99.90
2018-03-26T06:03:17.024Z,99.90
2018-03-26T06:05:44.551Z,99.90
2018-03-26T06:08:12.851Z,99.90
2018-03-26T06:10:40.368Z,99.90
2018-03-26T06:13:07.880Z,99.90
2018-03-26T06:15:36.205Z,99.90
2018-03-26T06:18:03.854Z,99.90
2018-03-26T06:20:32.182Z,99.90
2018-03-26T06:23:00.028Z,99.90
2018-03-26T06:25:27.621Z,99.90
2018-03-26T06:27:55.304Z,99.90
2018-03-26T06:30:22.853Z,99.90
2018-03-26T06:32:50.364Z,99.90
2018-03-26T06:35:17.902Z,99.90
2018-03-26T06:40:52.859Z,99.90
2018-03-26T06:43:21.178Z,99.90
2018-03-26T06:45:48.732Z,99.90
2018-03-26T06:48:16.252Z,99.90
2018-03-26T06:50:43.763Z,99.90
2018-03-26T06:53:12.062Z,99.90
2018-03-26T06:55:39.576Z,99.90
2018-03-26T06:58:07.135Z,99.90
2018-03-26T07:00:34.761Z,99.90
2018-03-26T07:03:03.271Z,99.90
2018-03-26T07:05:30.923Z,99.90
2018-03-26T07:07:58.604Z,99.90
2018-03-26T07:10:26.904Z,99.90
2018-03-26T07:12:54.415Z,99.90
2018-03-26T07:15:21.953Z,99.90
2018-03-26T07:17:49.609Z,99.90
2018-03-26T07:20:17.192Z,99.90
2018-03-26T07:22:44.718Z,99.90
2018-03-26T07:25:12.235Z,99.90
2018-03-26T07:27:39.784Z,99.90
2018-03-26T07:30:07.308Z,99.90
2018-03-26T07:32:35.663Z,99.90
2018-03-26T07:35:03.328Z,99.90
2018-03-26T07:37:32.194Z,99.90
2018-03-26T07:39:59.829Z,99.90
2018-03-26T07:42:27.365Z,99.90
2018-03-26T07:44:55.668Z,99.90
2018-03-26T07:47:23.182Z,99.90
2018-03-26T07:49:51.528Z,99.90
2018-03-26T07:52:19.076Z,99.90
2018-03-26T07:54:46.655Z,99.90
2018-03-26T07:57:14.934Z,99.90
2018-03-26T07:59:42.462Z,99.90
2018-03-26T08:02:10.762Z,99.90
2018-03-26T08:04:39.111Z,99.90
2018-03-26T08:07:06.640Z,99.90
2018-03-26T08:09:34.195Z,99.90
2018-03-26T08:12:02.003Z,99.90
2018-03-26T08:14:30.414Z,99.90
2018-03-26T08:16:57.978Z,99.90
2018-03-26T08:19:25.551Z,99.90
2018-03-26T08:21:53.159Z,99.90
2018-03-26T08:24:20.800Z,99.90
2018-03-26T08:26:49.094Z,99.90
2018-03-26T08:29:16.652Z,99.90
2018-03-26T08:31:44.215Z,99.90
2018-03-26T08:34:12.499Z,99.90
2018-03-26T08:36:40.355Z,99.90
2018-03-26T08:39:07.867Z,99.90
2018-03-26T08:41:36.180Z,99.90
2018-03-26T08:44:04.119Z,99.90
2018-03-26T08:46:32.556Z,98.50
2018-03-26T08:49:00.333Z,98.40
2018-03-26T08:51:27.860Z,97.60
2018-03-26T08:53:56.175Z,96.80
2018-03-26T08:56:23.688Z,96.70
2018-03-26T08:58:51.227Z,97.20
2018-03-26T09:01:18.795Z,93.80
2018-03-26T09:03:46.375Z,90.90
2018-03-26T09:06:13.900Z,90.80
2018-03-26T09:08:41.420Z,90.70
2018-03-26T09:11:08.956Z,90.60
2018-03-26T09:13:37.247Z,88.50
2018-03-26T09:16:05.691Z,90.20
2018-03-26T09:18:33.323Z,90.10
2018-03-26T09:21:00.975Z,90.20
2018-03-26T09:23:29.297Z,88.70
2018-03-26T09:25:56.876Z,88.70
2018-03-26T09:28:24.424Z,86.70
2018-03-26T09:30:51.953Z,90.00
2018-03-26T09:33:19.577Z,90.00
2018-03-26T09:35:47.135Z,91.40
2018-03-26T09:38:15.432Z,90.60
2018-03-26T09:40:42.966Z,90.60
2018-03-26T09:43:11.263Z,91.50
2018-03-26T09:45:39.561Z,89.70
2018-03-26T09:48:07.841Z,80.50
2018-03-26T09:50:36.172Z,86.80
2018-03-26T09:53:03.956Z,86.60
2018-03-26T09:55:31.585Z,84.10
2018-03-26T09:57:59.952Z,78.40
2018-03-26T10:00:33.884Z,82.20
2018-03-26T10:03:01.586Z,81.90
2018-03-26T10:05:29.160Z,84.80
2018-03-26T10:07:56.678Z,82.60
2018-03-26T10:10:24.971Z,73.50
2018-03-26T10:12:52.509Z,72.40
2018-03-26T10:15:20.639Z,70.30
2018-03-26T10:17:48.980Z,76.80
2018-03-26T10:20:16.503Z,77.40
2018-03-26T10:22:44.440Z,72.60
2018-03-26T10:25:11.980Z,73.80
2018-03-26T10:27:40.251Z,75.50
2018-03-26T10:30:07.807Z,75.60
2018-03-26T10:32:35.367Z,73.40
2018-03-26T10:35:02.956Z,81.30
2018-03-26T10:37:30.775Z,71.20
2018-03-26T10:39:58.564Z,70.30
2018-03-26T10:42:26.084Z,69.10
2018-03-26T10:44:53.606Z,63.70
2018-03-26T10:47:21.200Z,61.50
2018-03-26T10:49:48.752Z,65.20
2018-03-26T10:52:16.304Z,61.90
2018-03-26T10:54:43.823Z,58.80
2018-03-26T10:57:12.282Z,58.30
2018-03-26T10:59:40.695Z,56.20
2018-03-26T11:02:08.244Z,56.40
2018-03-26T11:04:35.856Z,56.80
2018-03-26T11:07:03.576Z,51.10
2018-03-26T11:09:31.203Z,52.60
2018-03-26T11:11:58.799Z,53.40
2018-03-26T11:14:26.384Z,55.50
2018-03-26T11:16:53.900Z,58.90
2018-03-26T11:19:21.451Z,56.10
2018-03-26T11:21:49.542Z,54.40
2018-03-26T11:24:17.182Z,59.40
2018-03-26T11:26:44.670Z,61.50
2018-03-26T11:29:12.184Z,59.40
2018-03-26T11:31:39.731Z,62.10
2018-03-26T11:34:07.239Z,58.30
2018-03-26T11:36:34.853Z,60.10
2018-03-26T11:39:02.479Z,63.80
2018-03-26T11:41:30.160Z,73.00
2018-03-26T11:43:58.541Z,57.30
2018-03-26T11:46:26.102Z,57.40
2018-03-26T11:48:53.616Z,57.50
2018-03-26T11:51:21.129Z,57.90
2018-03-26T11:53:48.673Z,59.40
2018-03-26T11:56:16.212Z,61.60
2018-03-26T11:58:43.755Z,58.70
2018-03-26T12:01:11.277Z,56.50
2018-03-26T12:03:38.816Z,58.50
2018-03-26T12:06:06.396Z,61.90
2018-03-26T12:08:34.776Z,58.70
2018-03-26T12:11:02.593Z,58.20
2018-03-26T12:13:30.958Z,57.20
2018-03-26T12:15:59.547Z,56.50
2018-03-26T12:18:27.111Z,57.40
2018-03-26T12:21:00.915Z,59.30
2018-03-26T12:23:41.069Z,65.20
2018-03-26T12:26:08.582Z,63.90
2018-03-26T12:28:48.744Z,63.60
2018-03-26T12:31:16.267Z,63.50
2018-03-26T12:33:55.768Z,60.80
2018-03-26T12:36:24.056Z,61.40
2018-03-26T12:38:52.535Z,60.40
2018-03-26T12:41:20.281Z,61.00
2018-03-26T12:43:47.800Z,57.00
2018-03-26T12:46:28.054Z,58.50
2018-03-26T12:48:56.372Z,60.20
2018-03-26T12:51:35.625Z,59.30
2018-03-26T12:54:03.419Z,57.00
2018-03-26T12:56:32.157Z,57.70
2018-03-26T12:58:59.883Z,58.20
2018-03-26T13:01:39.309Z,56.40
2018-03-26T13:04:07.604Z,55.40
2018-03-26T13:06:35.325Z,54.90
2018-03-26T13:09:03.119Z,54.80
2018-03-26T13:11:31.054Z,58.30
2018-03-26T13:13:58.626Z,55.10
2018-03-26T13:16:26.150Z,52.70
2018-03-26T13:18:54.556Z,49.70
2018-03-26T13:21:22.119Z,49.50
2018-03-26T13:23:49.652Z,53.50
2018-03-26T13:26:17.188Z,51.40
2018-03-26T13:28:44.695Z,54.60
2018-03-26T13:31:12.238Z,53.60
2018-03-26T13:33:39.772Z,54.00
2018-03-26T13:36:08.080Z,58.20
2018-03-26T13:38:35.723Z,57.90
2018-03-26T13:41:04.093Z,54.60
2018-03-26T13:43:31.767Z,54.50
2018-03-26T13:45:59.419Z,56.40
2018-03-26T13:48:26.957Z,60.50
2018-03-26T13:50:54.485Z,57.30
2018-03-26T13:53:22.014Z,58.70
2018-03-26T13:55:49.610Z,57.30
2018-03-26T13:58:17.130Z,58.30
2018-03-26T14:00:45.444Z,53.40
2018-03-26T14:03:12.961Z,53.40
2018-03-26T14:05:40.515Z,58.50
2018-03-26T14:11:21.510Z,58.10
2018-03-26T14:14:00.983Z,61.10
2018-03-26T14:16:40.515Z,58.80
2018-03-26T14:19:08.033Z,62.40
2018-03-26T14:21:35.691Z,54.30
2018-03-26T14:24:03.433Z,56.20
2018-03-26T14:26:31.156Z,57.90
2018-03-26T14:28:58.776Z,59.10
2018-03-26T14:31:26.311Z,62.90
2018-03-26T14:33:54.611Z,60.70
2018-03-26T14:36:22.976Z,59.80
2018-03-26T14:38:50.611Z,60.00
2018-03-26T14:41:18.132Z,58.30
2018-03-26T14:43:46.468Z,57.60
2018-03-26T14:46:13.981Z,57.30
2018-03-26T14:48:41.537Z,55.30
2018-03-26T14:51:09.832Z,52.90
2018-03-26T14:53:37.453Z,52.50
2018-03-26T14:56:05.052Z,55.80
2018-03-26T14:58:33.009Z,55.40
2018-03-26T15:01:00.727Z,54.20
2018-03-26T15:03:28.295Z,53.00
2018-03-26T15:05:55.821Z,52.30
2018-03-26T15:08:23.345Z,53.50
2018-03-26T15:10:50.915Z,49.70
2018-03-26T15:13:18.437Z,50.60
2018-03-26T15:15:45.999Z,52.80
2018-03-26T15:18:13.514Z,49.80
2018-03-26T15:20:41.066Z,52.80
2018-03-26T15:23:08.583Z,50.40
2018-03-26T15:25:36.163Z,52.80
2018-03-26T15:28:04.758Z,49.40
2018-03-26T15:30:32.640Z,49.10
2018-03-26T15:33:01.057Z,51.30
2018-03-26T15:35:28.724Z,51.20
2018-03-26T15:37:57.020Z,50.80
2018-03-26T15:40:24.538Z,51.00
2018-03-26T15:42:52.072Z,53.10
2018-03-26T15:45:19.655Z,49.10
2018-03-26T15:47:47.195Z,53.50
2018-03-26T15:50:14.720Z,55.30
2018-03-26T15:52:42.247Z,49.00
2018-03-26T15:55:09.772Z,51.20
2018-03-26T15:57:37.320Z,48.50
2018-03-26T16:00:04.974Z,51.50
2018-03-26T16:02:38.275Z,51.80
2018-03-26T16:05:05.847Z,49.30
2018-03-26T16:07:33.458Z,50.50
2018-03-26T16:10:01.132Z,50.50
2018-03-26T16:12:29.655Z,52.60
2018-03-26T16:14:57.199Z,52.20
2018-03-26T16:17:24.731Z,52.10
2018-03-26T16:19:52.320Z,54.80
2018-03-26T16:22:19.894Z,61.10
2018-03-26T16:24:48.284Z,58.90
2018-03-26T16:27:16.612Z,58.10
2018-03-26T16:29:44.915Z,59.60
2018-03-26T16:32:12.427Z,58.90
2018-03-26T16:34:39.980Z,60.70
2018-03-26T16:37:07.515Z,63.50
2018-03-26T16:39:35.965Z,67.00
2018-03-26T16:42:15.450Z,67.10
2018-03-26T16:44:43.021Z,66.40
2018-03-26T16:47:10.524Z,67.20
2018-03-26T16:49:38.055Z,65.80
2018-03-26T16:52:05.587Z,71.00
2018-03-26T16:54:33.182Z,69.00
2018-03-26T16:57:02.098Z,69.80
2018-03-26T16:59:29.785Z,69.70
2018-03-26T17:01:57.335Z,68.00
2018-03-26T17:04:24.844Z,74.40
2018-03-26T17:06:53.231Z,76.20
2018-03-26T17:09:20.844Z,76.30
2018-03-26T17:11:48.443Z,73.80
2018-03-26T17:14:15.972Z,73.10
2018-03-26T17:16:43.512Z,78.40
2018-03-26T17:19:11.788Z,77.80
2018-03-26T17:21:39.325Z,77.80
2018-03-26T17:24:08.090Z,78.90
2018-03-26T17:26:36.527Z,81.20
2018-03-26T17:29:04.042Z,81.00
2018-03-26T17:31:31.710Z,90.80
2018-03-26T17:33:59.516Z,84.10
2018-03-26T17:36:27.046Z,88.40
2018-03-26T17:38:55.325Z,93.10
2018-03-26T17:41:22.915Z,93.20
2018-03-26T17:43:51.370Z,96.20
2018-03-26T17:46:19.765Z,93.40
2018-03-26T17:48:48.089Z,94.00
2018-03-26T17:51:15.605Z,94.00
2018-03-26T17:53:43.124Z,92.90
2018-03-26T17:56:11.403Z,95.80
2018-03-26T17:58:38.935Z,95.60
2018-03-26T18:01:06.716Z,91.80
2018-03-26T18:03:34.373Z,94.10
2018-03-26T18:06:04.787Z,96.80
2018-03-26T18:08:35.412Z,96.80
2018-03-26T18:11:03.854Z,96.70
2018-03-26T18:13:31.639Z,96.70
2018-03-26T18:15:59.310Z,96.10
2018-03-26T18:18:26.856Z,95.00
2018-03-26T18:20:54.371Z,94.90
2018-03-26T18:23:21.929Z,96.00
2018-03-26T18:25:49.536Z,97.20
2018-03-26T18:28:17.889Z,96.20
2018-03-26T18:30:45.424Z,97.50
2018-03-26T18:33:12.963Z,96.00
2018-03-26T18:35:40.506Z,94.40
2018-03-26T18:38:08.067Z,93.90
2018-03-26T18:40:35.831Z,96.60
2018-03-26T18:43:03.502Z,98.10
2018-03-26T18:45:31.156Z,98.80
2018-03-26T18:47:58.956Z,97.70
2018-03-26T18:50:26.540Z,95.40
2018-03-26T18:52:54.059Z,95.40
2018-03-26T18:55:21.604Z,96.50
2018-03-26T18:57:49.245Z,95.60
2018-03-26T19:00:16.803Z,97.60
2018-03-26T19:02:44.315Z,97.60
2018-03-26T19:05:11.843Z,98.40
2018-03-26T19:07:39.349Z,96.00
2018-03-26T19:10:06.929Z,96.20
2018-03-26T19:12:34.547Z,96.10
2018-03-26T19:15:02.197Z,96.90
2018-03-26T19:17:29.936Z,97.00
2018-03-26T19:19:57.452Z,96.00
2018-03-26T19:22:25.771Z,95.40
2018-03-26T19:24:53.971Z,95.40
2018-03-26T19:27:21.563Z,95.60
2018-03-26T19:29:49.105Z,94.10
2018-03-26T19:32:16.633Z,94.10
2018-03-26T19:34:44.170Z,94.90
2018-03-26T19:37:11.679Z,95.40
2018-03-26T19:39:39.992Z,96.20
2018-03-26T19:42:07.508Z,96.20
2018-03-26T19:44:35.114Z,95.70
2018-03-26T19:47:02.812Z,95.00
2018-03-26T19:49:30.433Z,96.90
2018-03-26T19:51:57.932Z,96.10
2018-03-26T19:54:26.661Z,95.80
2018-03-26T19:56:56.323Z,96.40
2018-03-26T19:59:23.864Z,95.50
2018-03-26T20:01:51.406Z,95.90
2018-03-26T20:04:19.106Z,96.60
2018-03-26T20:06:46.612Z,97.00
2018-03-26T20:09:14.147Z,96.90
2018-03-26T20:11:41.660Z,97.60
2018-03-26T20:14:09.195Z,98.60
2018-03-26T20:16:36.720Z,98.00
2018-03-26T20:19:05.073Z,98.00
2018-03-26T20:21:34.167Z,98.00
2018-03-26T20:24:01.892Z,98.00
2018-03-26T20:26:29.678Z,98.40
2018-03-26T20:28:57.287Z,97.50
2018-03-26T20:31:24.818Z,97.80
2018-03-26T20:33:53.487Z,99.90
2018-03-26T20:36:21.067Z,99.90
2018-03-26T20:38:49.421Z,99.90
2018-03-26T20:41:16.963Z,99.90
2018-03-26T20:43:44.480Z,99.90
2018-03-26T20:46:12.017Z,99.90
2018-03-26T20:48:39.536Z,99.90
2018-03-26T20:51:07.068Z,99.40
2018-03-26T20:53:34.727Z,99.00
2018-03-26T20:56:02.416Z,99.90
2018-03-26T20:58:30.043Z,99.90
2018-03-26T21:00:58.420Z,99.90
2018-03-26T21:03:25.954Z,99.90
2018-03-26T21:05:53.467Z,99.80
2018-03-26T21:08:21.842Z,99.90
2018-03-26T21:10:49.432Z,99.90
2018-03-26T21:13:17.009Z,99.90
2018-03-26T21:15:45.287Z,99.90
2018-03-26T21:18:12.824Z,99.90
2018-03-26T21:20:40.684Z,99.90
2018-03-26T21:23:08.207Z,99.90
2018-03-26T21:25:35.790Z,98.60
2018-03-26T21:28:04.888Z,99.90
2018-03-26T21:30:33.218Z,99.90
2018-03-26T21:33:00.957Z,99.90
2018-03-26T21:35:28.724Z,99.90
2018-03-26T21:37:57.027Z,99.90
2018-03-26T21:40:25.311Z,99.90
2018-03-26T21:42:53.612Z,99.90
2018-03-26T21:45:21.833Z,99.90
2018-03-26T21:47:49.379Z,99.90
2018-03-26T21:50:16.960Z,99.90
2018-03-26T21:52:44.483Z,99.90
2018-03-26T21:55:12.023Z,99.90
2018-03-26T21:57:39.531Z,99.90
2018-03-26T22:00:08.198Z,99.90
2018-03-26T22:02:35.793Z,99.90
2018-03-26T22:05:04.170Z,99.90
2018-03-26T22:07:32.340Z,99.90
2018-03-26T22:09:59.940Z,99.90
2018-03-26T22:12:27.495Z,99.90
2018-03-26T22:14:55.072Z,99.90
2018-03-26T22:17:22.768Z,99.90
2018-03-26T22:19:51.207Z,99.90
2018-03-26T22:22:18.768Z,99.90
2018-03-26T22:24:46.320Z,99.90
2018-03-26T22:27:13.859Z,99.90
2018-03-26T22:29:41.386Z,99.90
2018-03-26T22:32:08.916Z,99.90
2018-03-26T22:34:37.192Z,99.90
2018-03-26T22:37:05.567Z,99.90
2018-03-26T22:39:33.939Z,99.90
2018-03-26T22:42:01.502Z,99.90
2018-03-26T22:44:29.060Z,99.90
2018-03-26T22:46:56.605Z,99.90
2018-03-26T22:49:24.882Z,99.90
2018-03-26T22:51:53.184Z,99.90
2018-03-26T22:54:21.516Z,99.90
2018-03-26T22:56:49.117Z,99.90
2018-03-26T22:59:16.640Z,99.90
2018-03-26T23:01:44.175Z,99.90
2018-03-26T23:04:11.683Z,99.90
2018-03-26T23:06:39.225Z,99.90
2018-03-26T23:09:06.768Z,99.90
2018-03-26T23:11:34.338Z,99.90
2018-03-26T23:14:03.775Z,99.90
2018-03-26T23:16:32.184Z,99.90
2018-03-26T23:18:59.897Z,99.90
2018-03-26T23:21:27.416Z,99.90
2018-03-26T23:23:55.715Z,99.90
2018-03-26T23:26:24.028Z,99.90
2018-03-26T23:28:51.668Z,99.90
2018-03-26T23:31:19.958Z,99.90
2018-03-26T23:33:48.268Z,99.90
2018-03-26T23:36:15.810Z,99.90
2018-03-26T23:38:43.339Z,99.90
2018-03-26T23:41:11.455Z,99.90
2018-03-26T23:43:38.994Z,99.90
2018-03-26T23:46:06.599Z,99.90
2018-03-26T23:48:34.156Z,99.90
2018-03-26T23:51:02.573Z,99.90
2018-03-26T23:53:31.179Z,99.90
2018-03-26T23:55:58.841Z,99.90
2018-03-26T23:58:26.460Z,99.90
